createdAt,value
2023-05-19T00:00:15.876Z,86.07
2023-05-19T00:01:08.922Z,85.92
2023-05-19T00:02:00.744Z,86.07
2023-05-19T00:02:52.604Z,86.23
2023-05-19T00:03:57.407Z,86.42
2023-05-19T00:04:49.677Z,86.73
2023-05-19T00:05:46.373Z,86.74
2023-05-19T00:06:38.830Z,87.16
2023-05-19T00:07:32.422Z,87.08
2023-05-19T00:08:24.885Z,87.23
2023-05-19T00:09:16.971Z,87.19
2023-05-19T00:10:09.221Z,87.10
2023-05-19T00:11:01.814Z,87.02
2023-05-19T00:11:53.626Z,87.18
2023-05-19T00:12:45.394Z,87.40
2023-05-19T00:13:37.792Z,87.11
2023-05-19T00:14:29.579Z,86.85
2023-05-19T00:15:21.605Z,87.08
2023-05-19T00:16:13.660Z,87.23
2023-05-19T00:17:06.044Z,87.17
2023-05-19T00:17:58.039Z,87.26
2023-05-19T00:18:49.857Z,87.79
2023-05-19T00:19:41.514Z,87.71
2023-05-19T00:20:34.487Z,87.71
2023-05-19T00:21:27.274Z,87.75
2023-05-19T00:22:18.711Z,87.80
2023-05-19T00:23:11.224Z,87.79
2023-05-19T00:24:05.243Z,87.92
2023-05-19T00:24:56.774Z,87.83
2023-05-19T00:25:48.219Z,87.87
2023-05-19T00:26:39.880Z,88.07
2023-05-19T00:27:31.725Z,88.37
2023-05-19T00:28:25.788Z,88.52
2023-05-19T00:29:18.984Z,88.77
2023-05-19T00:30:11.441Z,89.05
2023-05-19T00:31:05.585Z,89.04
2023-05-19T00:31:57.783Z,88.89
2023-05-19T00:32:49.265Z,89.00
2023-05-19T00:33:41.851Z,89.11
2023-05-19T00:34:34.428Z,89.27
2023-05-19T00:35:26.095Z,89.27
2023-05-19T00:36:17.814Z,89.64
2023-05-19T00:37:09.284Z,90.05
2023-05-19T00:38:03.246Z,89.88
2023-05-19T00:38:55.034Z,90.30
2023-05-19T00:39:46.746Z,90.25
2023-05-19T00:40:38.386Z,90.36
2023-05-19T00:41:29.906Z,90.42
2023-05-19T00:42:23.561Z,90.10
2023-05-19T00:43:15.001Z,90.08
2023-05-19T00:44:09.500Z,90.13
2023-05-19T00:45:01.034Z,90.21
2023-05-19T00:45:54.982Z,90.35
2023-05-19T00:46:46.834Z,90.35
2023-05-19T00:47:39.353Z,90.72
2023-05-19T00:48:33.761Z,90.69
2023-05-19T00:49:27.533Z,90.85
2023-05-19T00:50:19.182Z,90.81
2023-05-19T00:51:14.605Z,91.53
2023-05-19T00:52:07.290Z,91.16
2023-05-19T00:53:03.378Z,91.42
2023-05-19T00:53:56.632Z,91.69
2023-05-19T00:54:49.378Z,91.60
2023-05-19T00:55:41.106Z,91.58
2023-05-19T00:56:33.493Z,91.02
2023-05-19T00:57:26.907Z,91.16
2023-05-19T00:58:19.043Z,91.03
2023-05-19T00:59:10.683Z,91.09
2023-05-19T01:00:03.756Z,90.75
2023-05-19T01:01:03.532Z,90.95
2023-05-19T01:01:56.099Z,91.10
2023-05-19T01:02:48.099Z,91.12
2023-05-19T01:03:40.857Z,91.35
2023-05-19T01:04:34.849Z,91.75
2023-05-19T01:05:28.992Z,91.55
2023-05-19T01:06:20.748Z,91.44
2023-05-19T01:07:13.558Z,91.59
2023-05-19T01:08:05.736Z,91.47
2023-05-19T01:08:57.395Z,91.16
2023-05-19T01:09:49.263Z,91.32
2023-05-19T01:10:41.009Z,91.25
2023-05-19T01:11:32.507Z,91.54
2023-05-19T01:12:26.005Z,91.49
2023-05-19T01:13:17.813Z,91.32
2023-05-19T01:14:09.362Z,91.45
2023-05-19T01:15:01.914Z,91.74
2023-05-19T01:16:12.965Z,91.88
2023-05-19T01:17:15.307Z,91.94
2023-05-19T01:18:18.649Z,91.76
2023-05-19T01:19:22.185Z,91.84
2023-05-19T01:20:32.034Z,91.91
2023-05-19T01:21:37.392Z,92.38
2023-05-19T01:22:54.893Z,92.41
2023-05-19T01:24:02.118Z,92.68
2023-05-19T01:25:12.894Z,92.86
2023-05-19T01:26:39.091Z,92.76
2023-05-19T01:28:08.508Z,92.97
2023-05-19T01:29:34.584Z,93.18
2023-05-19T01:30:39.134Z,93.38
2023-05-19T01:31:31.547Z,93.25
2023-05-19T01:32:25.473Z,93.29
2023-05-19T01:33:19.908Z,93.36
2023-05-19T01:34:14.222Z,93.65
2023-05-19T01:35:09.772Z,93.96
2023-05-19T01:36:04.328Z,93.71
2023-05-19T01:36:55.910Z,93.85
2023-05-19T01:37:54.607Z,93.84
2023-05-19T01:38:53.998Z,94.21
2023-05-19T01:39:46.420Z,94.20
2023-05-19T01:40:41.697Z,93.65
2023-05-19T01:41:34.846Z,94.08
2023-05-19T01:42:29.580Z,94.13
2023-05-19T01:43:23.913Z,93.98
2023-05-19T01:44:16.180Z,93.79
2023-05-19T01:45:10.613Z,94.00
2023-05-19T01:46:03.286Z,93.82
2023-05-19T01:46:55.556Z,94.22
2023-05-19T01:47:52.305Z,93.87
2023-05-19T01:48:44.904Z,93.56
2023-05-19T01:49:36.463Z,93.69
2023-05-19T01:50:30.241Z,94.08
2023-05-19T01:51:22.012Z,94.16
2023-05-19T01:52:13.762Z,94.05
2023-05-19T01:53:05.531Z,94.59
2023-05-19T01:53:59.442Z,94.25
2023-05-19T01:54:53.067Z,94.30
2023-05-19T01:55:50.482Z,94.67
2023-05-19T01:57:11.692Z,94.47
2023-05-19T01:58:33.721Z,94.84
2023-05-19T01:59:38.558Z,94.90
2023-05-19T02:00:48.338Z,95.36
2023-05-19T02:01:48.536Z,95.10
2023-05-19T02:03:08.129Z,95.60
2023-05-19T02:04:42.387Z,95.15
2023-05-19T02:05:52.357Z,95.73
2023-05-19T02:06:56.093Z,95.38
2023-05-19T02:08:02.390Z,95.27
2023-05-19T02:09:04.168Z,95.31
2023-05-19T02:10:06.695Z,95.19
2023-05-19T02:11:04.102Z,95.42
2023-05-19T02:12:02.988Z,95.37
2023-05-19T02:13:00.926Z,95.47
2023-05-19T02:13:59.503Z,95.22
2023-05-19T02:15:13.206Z,95.19
2023-05-19T02:16:06.252Z,95.51
2023-05-19T02:16:59.242Z,95.43
2023-05-19T02:17:54.554Z,95.58
2023-05-19T02:18:47.954Z,95.32
2023-05-19T02:19:43.558Z,95.27
2023-05-19T02:20:35.255Z,95.01
2023-05-19T02:21:26.831Z,94.80
2023-05-19T02:22:20.000Z,94.61
2023-05-19T02:23:12.197Z,94.41
2023-05-19T02:24:04.211Z,94.84
2023-05-19T02:24:59.920Z,94.99
2023-05-19T02:25:51.478Z,95.05
2023-05-19T02:26:43.812Z,94.74
2023-05-19T02:27:36.865Z,94.60
2023-05-19T02:28:28.679Z,94.95
2023-05-19T02:29:20.999Z,95.05
2023-05-19T02:30:12.829Z,95.26
2023-05-19T02:31:08.812Z,95.55
2023-05-19T02:32:02.047Z,95.42
2023-05-19T02:32:54.248Z,95.71
2023-05-19T02:33:46.366Z,95.76
2023-05-19T02:34:38.224Z,95.92
2023-05-19T02:35:30.067Z,96.14
2023-05-19T02:36:21.519Z,95.94
2023-05-19T02:37:15.792Z,95.90
2023-05-19T02:38:07.748Z,95.95
2023-05-19T02:39:03.002Z,96.03
2023-05-19T02:39:55.556Z,96.42
2023-05-19T02:40:47.065Z,95.98
2023-05-19T02:41:39.411Z,96.26
2023-05-19T02:42:31.333Z,96.27
2023-05-19T02:43:22.836Z,96.49
2023-05-19T02:44:14.547Z,96.53
2023-05-19T02:45:06.673Z,96.89
2023-05-19T02:46:01.170Z,96.89
2023-05-19T02:46:54.938Z,96.80
2023-05-19T02:47:48.465Z,96.56
2023-05-19T02:48:39.951Z,96.58
2023-05-19T02:49:35.761Z,96.63
2023-05-19T02:50:27.372Z,96.62
2023-05-19T02:51:19.087Z,96.33
2023-05-19T02:52:13.140Z,96.80
2023-05-19T02:53:05.110Z,97.09
2023-05-19T02:53:56.689Z,96.74
2023-05-19T02:54:48.159Z,96.68
2023-05-19T02:55:39.677Z,96.79
2023-05-19T02:56:31.180Z,96.64
2023-05-19T02:57:24.976Z,96.48
2023-05-19T02:58:16.734Z,96.77
2023-05-19T02:59:08.224Z,96.51
2023-05-19T02:59:59.844Z,96.75
2023-05-19T03:00:51.382Z,96.71
2023-05-19T03:01:43.205Z,96.58
2023-05-19T03:02:35.402Z,96.60
2023-05-19T03:03:27.274Z,96.78
2023-05-19T03:04:20.064Z,96.65
2023-05-19T03:05:11.621Z,96.47
2023-05-19T03:06:03.817Z,96.73
2023-05-19T03:06:55.712Z,96.82
2023-05-19T03:07:47.662Z,96.84
2023-05-19T03:08:41.557Z,96.94
2023-05-19T03:09:33.859Z,96.82
2023-05-19T03:10:25.698Z,97.06
2023-05-19T03:11:17.524Z,97.02
2023-05-19T03:12:09.109Z,97.41
2023-05-19T03:13:00.685Z,97.20
2023-05-19T03:13:52.185Z,97.30
2023-05-19T03:14:43.834Z,97.17
2023-05-19T03:15:36.490Z,97.36
2023-05-19T03:16:28.042Z,97.75
2023-05-19T03:17:19.825Z,97.69
2023-05-19T03:18:14.568Z,97.73
2023-05-19T03:19:06.163Z,97.38
2023-05-19T03:19:57.642Z,97.54
2023-05-19T03:20:56.429Z,97.92
2023-05-19T03:21:48.072Z,98.02
2023-05-19T03:22:39.545Z,97.96
2023-05-19T03:23:30.994Z,97.89
2023-05-19T03:24:23.004Z,97.87
2023-05-19T03:25:14.721Z,97.71
2023-05-19T03:26:06.764Z,97.37
2023-05-19T03:26:58.251Z,97.62
2023-05-19T03:27:52.356Z,97.65
2023-05-19T03:28:43.958Z,97.50
2023-05-19T03:29:35.485Z,97.53
2023-05-19T03:30:27.455Z,97.83
2023-05-19T03:31:36.299Z,97.92
2023-05-19T03:32:31.833Z,98.05
2023-05-19T03:33:23.946Z,97.98
2023-05-19T03:34:16.377Z,97.79
2023-05-19T03:35:08.695Z,98.34
2023-05-19T03:36:00.277Z,98.50
2023-05-19T03:36:57.090Z,98.34
2023-05-19T03:37:48.923Z,98.37
2023-05-19T03:38:40.701Z,98.06
2023-05-19T03:39:34.721Z,97.99
2023-05-19T03:40:26.236Z,97.82
2023-05-19T03:41:25.842Z,97.92
2023-05-19T03:42:17.576Z,98.23
2023-05-19T03:43:09.208Z,98.26
2023-05-19T03:44:08.080Z,98.32
2023-05-19T03:45:01.031Z,98.64
2023-05-19T03:45:53.452Z,98.42
2023-05-19T03:47:07.526Z,98.62
2023-05-19T03:48:19.134Z,97.98
2023-05-19T03:49:31.241Z,98.13
2023-05-19T03:50:54.523Z,98.11
2023-05-19T03:51:51.029Z,98.16
2023-05-19T03:52:50.517Z,98.47
2023-05-19T03:53:52.082Z,98.55
2023-05-19T03:54:45.049Z,98.49
2023-05-19T03:55:37.406Z,98.14
2023-05-19T03:56:28.919Z,98.27
2023-05-19T03:57:22.833Z,98.02
2023-05-19T03:58:14.584Z,98.33
2023-05-19T03:59:07.116Z,98.12
2023-05-19T04:00:03.130Z,98.20
2023-05-19T04:01:03.748Z,98.43
2023-05-19T04:01:58.507Z,98.18
2023-05-19T04:02:51.769Z,98.28
2023-05-19T04:03:43.423Z,98.35
2023-05-19T04:04:35.025Z,97.76
2023-05-19T04:05:26.587Z,98.16
2023-05-19T04:06:19.019Z,97.84
2023-05-19T04:07:11.660Z,98.02
2023-05-19T04:08:03.187Z,98.14
2023-05-19T04:08:54.844Z,98.16
2023-05-19T04:09:46.529Z,98.40
2023-05-19T04:10:39.324Z,98.19
2023-05-19T04:11:30.839Z,98.26
2023-05-19T04:12:22.779Z,98.38
2023-05-19T04:13:14.239Z,98.38
2023-05-19T04:14:06.300Z,98.63
2023-05-19T04:14:57.817Z,98.31
2023-05-19T04:15:49.922Z,98.25
2023-05-19T04:16:42.226Z,98.12
2023-05-19T04:17:33.878Z,98.41
2023-05-19T04:18:26.942Z,98.26
2023-05-19T04:19:20.580Z,98.58
2023-05-19T04:20:12.581Z,98.41
2023-05-19T04:21:04.346Z,98.28
2023-05-19T04:21:58.858Z,98.31
2023-05-19T04:22:50.364Z,98.58
2023-05-19T04:23:41.905Z,98.55
2023-05-19T04:24:33.781Z,98.24
2023-05-19T04:25:25.513Z,98.00
2023-05-19T04:26:18.039Z,98.06
2023-05-19T04:27:12.451Z,97.94
2023-05-19T04:28:05.049Z,98.24
2023-05-19T04:28:57.064Z,98.27
2023-05-19T04:29:49.532Z,98.20
2023-05-19T04:30:42.480Z,98.38
2023-05-19T04:31:35.867Z,98.39
2023-05-19T04:32:31.135Z,98.10
2023-05-19T04:33:27.154Z,98.22
2023-05-19T04:34:19.861Z,97.76
2023-05-19T04:35:13.604Z,98.08
2023-05-19T04:36:08.587Z,98.25
2023-05-19T04:37:02.858Z,98.20
2023-05-19T04:37:55.770Z,97.74
2023-05-19T04:38:54.975Z,97.89
2023-05-19T04:39:48.732Z,97.79
2023-05-19T04:40:43.072Z,98.05
2023-05-19T04:41:35.588Z,97.79
2023-05-19T04:42:33.141Z,97.76
2023-05-19T04:43:28.361Z,97.86
2023-05-19T04:44:20.264Z,97.90
2023-05-19T04:45:14.915Z,97.97
2023-05-19T04:46:13.435Z,97.83
2023-05-19T04:47:09.139Z,97.68
2023-05-19T04:48:01.845Z,97.81
2023-05-19T04:48:55.278Z,97.86
2023-05-19T04:49:47.169Z,97.82
2023-05-19T04:50:41.963Z,97.77
2023-05-19T04:51:33.905Z,97.63
2023-05-19T04:52:27.651Z,97.87
2023-05-19T04:53:19.249Z,97.82
2023-05-19T04:54:10.787Z,97.83
2023-05-19T04:55:02.399Z,97.54
2023-05-19T04:55:54.609Z,97.73
2023-05-19T04:56:46.200Z,97.72
2023-05-19T04:57:38.781Z,97.40
2023-05-19T04:58:31.503Z,97.25
2023-05-19T04:59:23.261Z,97.34
2023-05-19T05:00:15.928Z,97.40
2023-05-19T05:01:25.910Z,97.18
2023-05-19T05:02:18.845Z,97.14
2023-05-19T05:03:10.606Z,97.13
2023-05-19T05:04:03.410Z,97.03
2023-05-19T05:04:56.718Z,97.07
2023-05-19T05:05:50.077Z,97.08
2023-05-19T05:06:42.348Z,97.14
2023-05-19T05:07:34.964Z,96.99
2023-05-19T05:08:27.294Z,96.76
2023-05-19T05:09:19.866Z,96.81
2023-05-19T05:10:11.637Z,96.79
2023-05-19T05:11:04.775Z,97.08
2023-05-19T05:11:56.901Z,96.80
2023-05-19T05:12:51.923Z,96.93
2023-05-19T05:13:44.410Z,97.18
2023-05-19T05:14:37.641Z,97.09
2023-05-19T05:15:29.911Z,97.12
2023-05-19T05:16:24.601Z,96.81
2023-05-19T05:17:16.758Z,96.77
2023-05-19T05:18:09.172Z,96.90
2023-05-19T05:19:01.758Z,96.89
2023-05-19T05:19:54.042Z,96.64
2023-05-19T05:20:46.859Z,96.28
2023-05-19T05:21:39.014Z,96.06
2023-05-19T05:22:30.864Z,96.15
2023-05-19T05:23:25.248Z,96.07
2023-05-19T05:24:17.056Z,96.13
2023-05-19T05:25:14.473Z,96.29
2023-05-19T05:26:18.944Z,96.24
2023-05-19T05:27:13.634Z,96.42
2023-05-19T05:28:05.805Z,95.86
2023-05-19T05:28:59.578Z,95.97
2023-05-19T05:29:51.729Z,95.55
2023-05-19T05:30:46.408Z,95.39
2023-05-19T05:31:39.593Z,95.33
2023-05-19T05:32:31.939Z,95.08
2023-05-19T05:33:25.200Z,94.61
2023-05-19T05:34:17.225Z,93.68
2023-05-19T05:35:09.488Z,92.95
2023-05-19T05:36:03.863Z,92.42
2023-05-19T05:36:55.753Z,92.39
2023-05-19T05:37:47.475Z,91.88
2023-05-19T05:38:39.033Z,91.14
2023-05-19T05:39:32.827Z,90.41
2023-05-19T05:40:25.080Z,90.34
2023-05-19T05:41:18.107Z,90.04
2023-05-19T05:42:12.053Z,89.91
2023-05-19T05:43:05.026Z,89.84
2023-05-19T05:44:01.340Z,89.78
2023-05-19T05:44:54.113Z,89.53
2023-05-19T05:45:46.622Z,89.49
2023-05-19T05:46:38.517Z,89.50
2023-05-19T05:47:30.576Z,89.55
2023-05-19T05:48:22.682Z,89.25
2023-05-19T05:49:14.540Z,89.09
2023-05-19T05:50:10.828Z,88.98
2023-05-19T05:51:02.929Z,88.17
2023-05-19T05:52:05.672Z,87.98
2023-05-19T05:53:06.530Z,87.04
2023-05-19T05:54:02.266Z,85.81
2023-05-19T05:55:01.897Z,84.85
2023-05-19T05:55:54.638Z,83.26
2023-05-19T05:56:53.236Z,83.25
2023-05-19T05:57:45.104Z,83.24
2023-05-19T05:58:39.035Z,82.59
2023-05-19T05:59:30.793Z,81.65
2023-05-19T06:00:22.539Z,81.74
2023-05-19T06:01:17.746Z,81.10
2023-05-19T06:02:09.686Z,80.15
2023-05-19T06:03:03.179Z,80.09
2023-05-19T06:03:55.849Z,79.11
2023-05-19T06:04:49.047Z,78.58
2023-05-19T06:05:40.614Z,78.33
2023-05-19T06:06:35.965Z,77.34
2023-05-19T06:07:27.504Z,77.15
2023-05-19T06:08:19.099Z,78.49
2023-05-19T06:09:10.756Z,79.15
2023-05-19T06:10:02.888Z,77.82
2023-05-19T06:10:55.256Z,77.46
2023-05-19T06:11:46.828Z,77.50
2023-05-19T06:12:43.342Z,77.30
2023-05-19T06:13:36.789Z,77.43
2023-05-19T06:14:31.313Z,77.05
2023-05-19T06:15:41.607Z,76.89
2023-05-19T06:16:52.964Z,75.87
2023-05-19T06:17:44.797Z,75.21
2023-05-19T06:18:40.231Z,75.66
2023-05-19T06:19:31.846Z,76.61
2023-05-19T06:20:23.425Z,76.74
2023-05-19T06:21:15.927Z,77.27
2023-05-19T06:22:07.806Z,77.36
2023-05-19T06:23:00.143Z,77.26
2023-05-19T06:23:52.733Z,78.13
2023-05-19T06:24:44.761Z,77.53
2023-05-19T06:25:38.584Z,76.77
2023-05-19T06:26:30.604Z,75.38
2023-05-19T06:27:22.069Z,75.35
2023-05-19T06:28:13.573Z,75.23
2023-05-19T06:29:05.183Z,73.93
2023-05-19T06:29:56.915Z,74.95
2023-05-19T06:30:52.068Z,74.43
2023-05-19T06:31:57.153Z,74.29
2023-05-19T06:32:49.684Z,74.44
2023-05-19T06:33:43.564Z,73.66
2023-05-19T06:34:35.517Z,73.22
2023-05-19T06:35:26.999Z,73.16
2023-05-19T06:36:18.542Z,73.70
2023-05-19T06:37:11.161Z,73.77
2023-05-19T06:38:03.049Z,74.26
2023-05-19T06:38:54.723Z,74.72
2023-05-19T06:39:46.330Z,74.82
2023-05-19T06:40:38.418Z,74.84
2023-05-19T06:41:30.152Z,74.72
2023-05-19T06:42:25.162Z,74.42
2023-05-19T06:43:25.829Z,74.04
2023-05-19T06:44:22.610Z,75.08
2023-05-19T06:45:15.130Z,75.19
2023-05-19T06:46:06.894Z,74.43
2023-05-19T06:46:58.616Z,73.30
2023-05-19T06:47:50.428Z,72.94
2023-05-19T06:48:42.116Z,74.30
2023-05-19T06:49:35.680Z,75.17
2023-05-19T06:50:27.472Z,74.54
2023-05-19T06:51:21.712Z,74.38
2023-05-19T06:52:17.490Z,74.40
2023-05-19T06:53:11.174Z,73.96
2023-05-19T06:54:03.406Z,73.38
2023-05-19T06:54:55.053Z,73.99
2023-05-19T06:55:57.878Z,73.46
2023-05-19T06:56:52.332Z,71.80
2023-05-19T06:57:43.841Z,72.63
2023-05-19T06:58:36.699Z,73.31
2023-05-19T06:59:30.320Z,72.42
2023-05-19T07:00:23.840Z,71.20
2023-05-19T07:01:19.818Z,70.10
2023-05-19T07:02:17.973Z,68.49
2023-05-19T07:03:10.265Z,67.99
2023-05-19T07:04:02.946Z,68.63
2023-05-19T07:04:58.759Z,69.92
2023-05-19T07:05:51.078Z,70.54
2023-05-19T07:06:42.897Z,70.29
2023-05-19T07:07:34.523Z,71.04
2023-05-19T07:08:27.876Z,67.89
2023-05-19T07:09:19.376Z,66.50
2023-05-19T07:10:12.929Z,66.91
2023-05-19T07:11:04.817Z,66.83
2023-05-19T07:11:58.569Z,67.72
2023-05-19T07:12:50.063Z,66.96
2023-05-19T07:13:43.290Z,67.61
2023-05-19T07:14:36.461Z,67.89
2023-05-19T07:15:28.574Z,69.45
2023-05-19T07:16:20.210Z,68.20
2023-05-19T07:17:11.730Z,68.41
2023-05-19T07:18:07.567Z,69.15
2023-05-19T07:19:00.837Z,68.81
2023-05-19T07:19:52.400Z,70.73
2023-05-19T07:20:44.181Z,68.50
2023-05-19T07:21:35.832Z,66.91
2023-05-19T07:22:27.483Z,68.90
2023-05-19T07:23:20.261Z,69.60
2023-05-19T07:24:12.556Z,69.64
2023-05-19T07:25:04.601Z,68.92
2023-05-19T07:26:00.393Z,66.28
2023-05-19T07:26:51.974Z,67.08
2023-05-19T07:27:43.413Z,64.96
2023-05-19T07:28:34.966Z,66.76
2023-05-19T07:29:26.501Z,68.73
2023-05-19T07:30:18.242Z,68.33
2023-05-19T07:31:09.827Z,66.66
2023-05-19T07:32:01.351Z,63.62
2023-05-19T07:32:53.001Z,64.73
2023-05-19T07:33:44.614Z,65.17
2023-05-19T07:34:36.802Z,65.95
2023-05-19T07:35:30.217Z,60.51
2023-05-19T07:36:21.713Z,61.11
2023-05-19T07:37:15.317Z,65.07
2023-05-19T07:38:07.431Z,64.62
2023-05-19T07:38:59.020Z,59.19
2023-05-19T07:39:50.475Z,59.65
2023-05-19T07:40:41.982Z,61.09
2023-05-19T07:41:34.434Z,62.04
2023-05-19T07:42:27.882Z,62.01
2023-05-19T07:43:19.522Z,62.18
2023-05-19T07:44:11.103Z,60.19
2023-05-19T07:45:03.670Z,62.38
2023-05-19T07:45:58.699Z,63.83
2023-05-19T07:46:50.575Z,63.91
2023-05-19T07:47:44.717Z,59.21
2023-05-19T07:48:36.812Z,62.17
2023-05-19T07:49:28.357Z,61.41
2023-05-19T07:50:20.521Z,63.50
2023-05-19T07:51:13.342Z,59.35
2023-05-19T07:52:08.076Z,58.23
2023-05-19T07:52:59.714Z,56.25
2023-05-19T07:53:53.809Z,56.90
2023-05-19T07:54:46.063Z,59.97
2023-05-19T07:55:37.561Z,56.18
2023-05-19T07:56:29.582Z,55.96
2023-05-19T07:57:21.130Z,56.53
2023-05-19T07:58:12.574Z,56.13
2023-05-19T07:59:04.582Z,56.01
2023-05-19T07:59:56.716Z,54.74
2023-05-19T08:00:50.768Z,55.17
2023-05-19T08:01:42.348Z,58.36
2023-05-19T08:02:34.056Z,57.63
2023-05-19T08:03:30.612Z,55.11
2023-05-19T08:04:25.651Z,56.01
2023-05-19T08:05:18.355Z,55.95
2023-05-19T08:06:11.095Z,55.98
2023-05-19T08:07:02.649Z,54.70
2023-05-19T08:07:54.121Z,56.53
2023-05-19T08:08:46.281Z,59.95
2023-05-19T08:09:37.827Z,59.13
2023-05-19T08:10:29.435Z,59.08
2023-05-19T08:11:21.664Z,54.05
2023-05-19T08:12:13.499Z,53.59
2023-05-19T08:13:05.332Z,54.44
2023-05-19T08:13:57.030Z,55.08
2023-05-19T08:14:50.695Z,53.37
2023-05-19T08:15:42.774Z,53.34
2023-05-19T08:16:34.371Z,53.46
2023-05-19T08:17:25.941Z,53.71
2023-05-19T08:18:17.436Z,53.33
2023-05-19T08:19:09.285Z,57.89
2023-05-19T08:20:00.734Z,54.43
2023-05-19T08:20:54.786Z,53.13
2023-05-19T08:21:46.228Z,55.53
2023-05-19T08:22:38.132Z,58.53
2023-05-19T08:23:29.907Z,57.90
2023-05-19T08:24:21.373Z,61.00
2023-05-19T08:25:13.963Z,61.69
2023-05-19T08:26:05.761Z,61.33
2023-05-19T08:26:57.394Z,53.14
2023-05-19T08:27:48.894Z,52.06
2023-05-19T08:28:40.797Z,54.34
2023-05-19T08:29:32.353Z,57.70
2023-05-19T08:30:24.299Z,56.12
2023-05-19T08:31:18.286Z,55.53
2023-05-19T08:32:12.404Z,56.07
2023-05-19T08:33:05.065Z,54.13
2023-05-19T08:33:56.758Z,52.06
2023-05-19T08:34:49.633Z,51.34
2023-05-19T08:35:41.111Z,51.57
2023-05-19T08:36:33.899Z,50.75
2023-05-19T08:37:25.549Z,50.58
2023-05-19T08:38:16.978Z,51.05
2023-05-19T08:39:08.489Z,50.47
2023-05-19T08:39:59.897Z,49.31
2023-05-19T08:40:51.646Z,54.20
2023-05-19T08:41:43.332Z,62.86
2023-05-19T08:42:35.199Z,54.86
2023-05-19T08:43:27.073Z,55.25
2023-05-19T08:44:19.218Z,54.22
2023-05-19T08:45:11.350Z,53.92
2023-05-19T08:46:03.892Z,51.81
2023-05-19T08:46:58.514Z,50.57
2023-05-19T08:47:51.310Z,48.07
2023-05-19T08:48:44.652Z,49.97
2023-05-19T08:49:44.434Z,49.01
2023-05-19T08:50:41.187Z,51.07
2023-05-19T08:51:58.641Z,56.44
2023-05-19T08:53:01.570Z,57.48
2023-05-19T08:54:00.328Z,57.38
2023-05-19T08:55:00.899Z,60.31
2023-05-19T08:56:11.461Z,55.75
2023-05-19T08:57:03.324Z,54.57
2023-05-19T08:57:56.258Z,51.57
2023-05-19T08:58:50.799Z,48.27
2023-05-19T08:59:43.582Z,46.93
2023-05-19T09:00:35.736Z,47.86
2023-05-19T09:01:31.283Z,48.44
2023-05-19T09:02:23.837Z,50.97
2023-05-19T09:03:23.495Z,47.37
2023-05-19T09:04:17.392Z,50.41
2023-05-19T09:05:10.324Z,49.95
2023-05-19T09:06:07.214Z,46.46
2023-05-19T09:07:05.500Z,48.51
2023-05-19T09:07:57.094Z,47.52
2023-05-19T09:08:48.716Z,51.91
2023-05-19T09:09:43.421Z,47.17
2023-05-19T09:10:34.921Z,52.77
2023-05-19T09:11:26.714Z,49.58
2023-05-19T09:12:18.124Z,50.41
2023-05-19T09:13:12.320Z,47.91
2023-05-19T09:14:05.013Z,50.87
2023-05-19T09:14:57.949Z,47.59
2023-05-19T09:15:52.849Z,50.34
2023-05-19T09:16:48.143Z,49.66
2023-05-19T09:17:39.966Z,48.58
2023-05-19T09:18:34.089Z,48.83
2023-05-19T09:19:29.390Z,48.50
2023-05-19T09:20:21.013Z,49.45
2023-05-19T09:21:13.084Z,49.19
2023-05-19T09:22:04.787Z,49.73
2023-05-19T09:22:57.318Z,52.13
2023-05-19T09:23:49.577Z,50.08
2023-05-19T09:24:42.123Z,51.11
2023-05-19T09:25:35.250Z,52.18
2023-05-19T09:26:40.465Z,49.65
2023-05-19T09:27:35.594Z,47.97
2023-05-19T09:28:33.907Z,50.25
2023-05-19T09:29:28.324Z,46.32
2023-05-19T09:30:20.286Z,47.84
2023-05-19T09:31:11.830Z,47.20
2023-05-19T09:32:06.011Z,47.91
2023-05-19T09:33:00.860Z,48.74
2023-05-19T09:33:53.766Z,48.24
2023-05-19T09:34:45.277Z,49.48
2023-05-19T09:35:37.128Z,46.57
2023-05-19T09:36:29.843Z,42.39
2023-05-19T09:37:24.545Z,42.41
2023-05-19T09:38:19.345Z,41.59
2023-05-19T09:39:17.921Z,41.62
2023-05-19T09:40:13.909Z,42.48
2023-05-19T09:41:07.548Z,45.13
2023-05-19T09:41:59.146Z,45.43
2023-05-19T09:42:50.615Z,43.34
2023-05-19T09:43:54.607Z,42.70
2023-05-19T09:44:47.862Z,45.60
2023-05-19T09:45:39.587Z,45.54
2023-05-19T09:46:31.155Z,43.98
2023-05-19T09:47:24.806Z,45.80
2023-05-19T09:48:16.470Z,44.36
2023-05-19T09:49:09.557Z,42.32
2023-05-19T09:50:01.034Z,44.97
2023-05-19T09:50:53.991Z,41.17
2023-05-19T09:51:46.005Z,40.30
2023-05-19T09:52:39.002Z,40.72
2023-05-19T09:53:32.327Z,43.22
2023-05-19T09:54:25.616Z,43.42
2023-05-19T09:55:18.566Z,43.27
2023-05-19T09:56:11.036Z,44.52
2023-05-19T09:57:07.741Z,43.65
2023-05-19T09:58:01.198Z,44.82
2023-05-19T09:58:52.817Z,44.66
2023-05-19T09:59:44.784Z,47.08
2023-05-19T10:00:38.931Z,46.36
2023-05-19T10:01:33.664Z,47.85
2023-05-19T10:02:26.102Z,46.32
2023-05-19T10:03:18.788Z,47.03
2023-05-19T10:04:11.448Z,46.21
2023-05-19T10:05:04.268Z,44.22
2023-05-19T10:06:01.347Z,42.54
2023-05-19T10:06:55.222Z,47.14
2023-05-19T10:07:50.231Z,43.39
2023-05-19T10:08:43.752Z,42.20
2023-05-19T10:09:37.207Z,44.90
2023-05-19T10:10:31.133Z,41.37
2023-05-19T10:11:23.416Z,41.28
2023-05-19T10:12:15.524Z,41.12
2023-05-19T10:13:07.754Z,42.98
2023-05-19T10:13:59.803Z,40.89
2023-05-19T10:14:54.700Z,40.50
2023-05-19T10:15:58.108Z,41.93
2023-05-19T10:16:52.891Z,42.96
2023-05-19T10:17:45.603Z,42.02
2023-05-19T10:18:40.014Z,42.72
2023-05-19T10:19:31.874Z,40.61
2023-05-19T10:20:25.435Z,40.48
2023-05-19T10:21:20.561Z,40.68
2023-05-19T10:22:12.004Z,42.28
2023-05-19T10:23:04.111Z,42.50
2023-05-19T10:23:58.035Z,42.05
2023-05-19T10:24:49.849Z,41.43
2023-05-19T10:25:43.456Z,40.88
2023-05-19T10:26:36.500Z,42.17
2023-05-19T10:27:30.614Z,40.84
2023-05-19T10:28:28.036Z,41.00
2023-05-19T10:29:25.469Z,41.04
2023-05-19T10:30:28.276Z,41.39
2023-05-19T10:31:24.390Z,40.96
2023-05-19T10:32:23.485Z,42.84
2023-05-19T10:33:28.857Z,42.16
2023-05-19T10:34:29.600Z,45.98
2023-05-19T10:35:39.964Z,46.58
2023-05-19T10:37:09.214Z,44.42
2023-05-19T10:38:13.130Z,40.42
2023-05-19T10:39:06.220Z,44.54
2023-05-19T10:39:58.801Z,44.23
2023-05-19T10:41:29.256Z,43.76
2023-05-19T10:42:45.818Z,42.57
2023-05-19T10:44:09.156Z,40.46
2023-05-19T10:45:17.358Z,41.06
2023-05-19T10:46:09.420Z,44.30
2023-05-19T10:47:01.138Z,42.31
2023-05-19T10:47:54.470Z,41.32
2023-05-19T10:48:46.528Z,43.28
2023-05-19T10:49:39.764Z,40.87
2023-05-19T10:50:39.018Z,40.13
2023-05-19T10:51:32.313Z,40.27
2023-05-19T10:52:29.682Z,40.03
2023-05-19T10:53:22.759Z,40.28
2023-05-19T10:54:17.046Z,40.53
2023-05-19T10:55:15.572Z,41.90
2023-05-19T10:56:08.161Z,49.03
2023-05-19T10:57:00.541Z,40.82
2023-05-19T10:57:58.228Z,41.08
2023-05-19T10:58:50.449Z,42.92
2023-05-19T10:59:42.057Z,41.54
2023-05-19T11:00:33.727Z,41.21
2023-05-19T11:01:35.792Z,40.45
2023-05-19T11:02:48.565Z,40.44
2023-05-19T11:03:47.480Z,40.92
2023-05-19T11:04:49.570Z,39.97
2023-05-19T11:05:45.512Z,40.61
2023-05-19T11:06:37.960Z,40.57
2023-05-19T11:07:31.374Z,40.10
2023-05-19T11:08:33.600Z,45.32
2023-05-19T11:09:37.939Z,48.21
2023-05-19T11:10:32.208Z,44.59
2023-05-19T11:11:26.681Z,47.14
2023-05-19T11:12:25.638Z,41.23
2023-05-19T11:13:23.421Z,42.69
2023-05-19T11:14:18.678Z,43.20
2023-05-19T11:15:13.447Z,42.68
2023-05-19T11:16:09.140Z,46.37
2023-05-19T11:17:00.897Z,41.53
2023-05-19T11:17:53.722Z,39.36
2023-05-19T11:18:49.330Z,40.24
2023-05-19T11:19:56.051Z,42.32
2023-05-19T11:20:58.290Z,44.05
2023-05-19T11:21:52.567Z,42.50
2023-05-19T11:23:06.041Z,40.54
2023-05-19T11:23:57.781Z,37.40
2023-05-19T11:24:57.888Z,38.33
2023-05-19T11:25:53.669Z,37.31
2023-05-19T11:26:46.229Z,37.29
2023-05-19T11:27:40.066Z,38.74
2023-05-19T11:28:33.604Z,42.08
2023-05-19T11:29:25.399Z,42.65
2023-05-19T11:30:20.043Z,43.06
2023-05-19T11:31:12.728Z,45.01
2023-05-19T11:32:05.157Z,42.49
2023-05-19T11:32:57.043Z,42.23
2023-05-19T11:33:48.835Z,39.25
2023-05-19T11:34:40.710Z,39.29
2023-05-19T11:35:35.440Z,42.23
2023-05-19T11:36:29.203Z,44.36
2023-05-19T11:37:20.767Z,43.68
2023-05-19T11:38:14.239Z,42.78
2023-05-19T11:39:06.520Z,40.42
2023-05-19T11:40:01.984Z,39.17
2023-05-19T11:40:54.482Z,40.00
2023-05-19T11:41:46.066Z,38.95